createdAt,value
2018-07-12T00:00:01.991Z,99.65
2018-07-12T00:03:04.276Z,99.62
2018-07-12T00:06:06.630Z,99.53
2018-07-12T00:09:09.012Z,99.50
2018-07-12T00:12:11.400Z,99.56
2018-07-12T00:15:13.719Z,99.59
2018-07-12T00:18:16.045Z,99.63
2018-07-12T00:21:18.401Z,99.72
2018-07-12T00:24:20.668Z,99.75
2018-07-12T00:27:22.971Z,99.78
2018-07-12T00:30:25.315Z,99.79
2018-07-12T00:33:27.800Z,99.78
2018-07-12T00:36:30.071Z,99.83
2018-07-12T00:39:32.385Z,99.80
2018-07-12T00:42:34.663Z,99.85
2018-07-12T00:45:36.978Z,99.89
2018-07-12T00:48:39.263Z,99.92
2018-07-12T00:51:41.593Z,100.11
2018-07-12T00:54:44.174Z,100.02
2018-07-12T00:57:46.493Z,99.95
2018-07-12T01:00:48.768Z,99.98
2018-07-12T01:03:51.076Z,100.08
2018-07-12T01:06:53.422Z,100.22
2018-07-12T01:09:55.797Z,100.33
2018-07-12T01:12:58.073Z,100.37
2018-07-12T01:16:00.511Z,100.38
2018-07-12T01:19:02.869Z,100.46
2018-07-12T01:22:05.332Z,100.40
2018-07-12T01:25:07.687Z,100.44
2018-07-12T01:28:09.978Z,100.44
2018-07-12T01:31:12.386Z,100.49
2018-07-12T01:34:14.804Z,100.56
2018-07-12T01:37:17.147Z,100.53
2018-07-12T01:40:19.567Z,100.41
2018-07-12T01:43:22.042Z,100.55
2018-07-12T01:46:24.317Z,100.55
2018-07-12T01:49:26.682Z,100.56
2018-07-12T01:52:28.999Z,100.61
2018-07-12T01:55:31.388Z,100.65
2018-07-12T01:58:33.829Z,100.63
2018-07-12T02:01:36.202Z,100.67
2018-07-12T02:04:38.593Z,100.73
2018-07-12T02:07:41.003Z,100.68
2018-07-12T02:10:43.403Z,100.71
2018-07-12T02:13:45.732Z,100.69
2018-07-12T02:16:48.068Z,100.75
2018-07-12T02:19:50.489Z,100.68
2018-07-12T02:22:53.144Z,100.72
2018-07-12T02:25:55.542Z,100.62
2018-07-12T02:28:57.851Z,100.49
2018-07-12T02:32:00.148Z,100.49
2018-07-12T02:35:02.822Z,100.59
2018-07-12T02:38:05.105Z,100.65
2018-07-12T02:41:07.360Z,100.62
2018-07-12T02:44:09.764Z,100.59
2018-07-12T02:47:12.079Z,100.27
2018-07-12T02:50:14.394Z,100.30
2018-07-12T02:53:16.758Z,100.42
2018-07-12T02:56:19.080Z,100.43
2018-07-12T02:59:21.508Z,100.46
2018-07-12T03:02:23.915Z,100.46
2018-07-12T03:05:26.200Z,100.65
2018-07-12T03:08:28.618Z,100.55
2018-07-12T03:11:30.942Z,100.45
2018-07-12T03:14:33.399Z,100.56
2018-07-12T03:17:35.869Z,100.41
2018-07-12T03:20:38.214Z,100.30
2018-07-12T03:23:40.641Z,100.27
2018-07-12T03:26:42.915Z,100.29
2018-07-12T03:29:45.274Z,100.28
2018-07-12T03:32:47.629Z,100.26
2018-07-12T03:35:50.118Z,100.30
2018-07-12T03:38:52.478Z,100.24
2018-07-12T03:41:54.832Z,100.20
2018-07-12T03:44:57.215Z,100.26
2018-07-12T03:47:59.614Z,100.29
2018-07-12T03:51:02.006Z,100.21
2018-07-12T03:54:04.496Z,100.09
2018-07-12T03:57:06.914Z,99.86
2018-07-12T04:00:09.349Z,99.56
2018-07-12T04:03:11.645Z,99.20
2018-07-12T04:06:14.005Z,99.11
2018-07-12T04:09:16.445Z,99.18
2018-07-12T04:12:18.753Z,99.33
2018-07-12T04:15:21.180Z,99.43
2018-07-12T04:18:23.438Z,99.39
2018-07-12T04:21:25.853Z,99.41
2018-07-12T04:24:28.200Z,99.21
2018-07-12T04:27:30.719Z,99.12
2018-07-12T04:30:33.066Z,99.14
2018-07-12T04:33:35.401Z,98.89
2018-07-12T04:36:37.931Z,98.61
2018-07-12T04:39:40.290Z,98.39
2018-07-12T04:42:42.671Z,97.78
2018-07-12T04:45:44.965Z,97.60
2018-07-12T04:48:47.271Z,96.79
2018-07-12T04:51:50.692Z,95.99
2018-07-12T04:54:52.984Z,95.86
2018-07-12T04:57:55.367Z,95.77
2018-07-12T05:00:57.776Z,95.64
2018-07-12T05:04:00.200Z,95.06
2018-07-12T05:07:02.599Z,94.65
2018-07-12T05:10:04.911Z,94.80
2018-07-12T05:13:07.309Z,92.67
2018-07-12T05:16:09.734Z,91.45
2018-07-12T05:19:12.059Z,89.52
2018-07-12T05:22:14.428Z,89.81
2018-07-12T05:25:16.841Z,91.65
2018-07-12T05:28:19.220Z,93.15
2018-07-12T05:31:21.556Z,93.21
2018-07-12T05:34:23.939Z,94.15
2018-07-12T05:37:27.584Z,95.45
2018-07-12T05:40:31.276Z,95.97
2018-07-12T05:43:34.974Z,96.41
2018-07-12T05:46:38.652Z,96.41
2018-07-12T05:49:42.195Z,96.43
2018-07-12T05:52:45.776Z,96.27
2018-07-12T05:55:49.380Z,95.61
2018-07-12T05:58:53.027Z,95.16
2018-07-12T06:02:07.873Z,93.25
2018-07-12T06:05:11.520Z,90.28
2018-07-12T06:08:15.110Z,84.49
2018-07-12T06:11:18.835Z,79.99
2018-07-12T06:14:22.468Z,78.87
2018-07-12T06:17:26.267Z,75.13
2018-07-12T06:20:29.890Z,73.69
2018-07-12T06:23:33.588Z,72.55
2018-07-12T06:26:37.276Z,70.76
2018-07-12T06:29:40.956Z,69.60
2018-07-12T06:32:44.697Z,67.57
2018-07-12T06:35:48.345Z,70.27
2018-07-12T06:38:51.962Z,64.30
2018-07-12T06:41:55.736Z,63.82
2018-07-12T06:44:59.496Z,61.72
2018-07-12T06:48:03.110Z,62.90
2018-07-12T06:51:06.851Z,60.98
2018-07-12T06:54:10.511Z,66.15
2018-07-12T06:57:14.222Z,68.53
2018-07-12T07:00:17.881Z,69.74
2018-07-12T07:03:21.487Z,72.81
2018-07-12T07:06:25.229Z,77.35
2018-07-12T07:09:28.866Z,79.04
2018-07-12T07:12:32.522Z,79.98
2018-07-12T07:15:36.126Z,82.42
2018-07-12T07:18:39.812Z,84.63
2018-07-12T07:21:43.352Z,82.85
2018-07-12T07:24:47.021Z,80.83
2018-07-12T07:27:50.603Z,78.03
2018-07-12T07:30:54.331Z,81.51
2018-07-12T07:33:57.930Z,78.95
2018-07-12T07:37:01.577Z,79.14
2018-07-12T07:40:05.306Z,78.56
2018-07-12T07:43:09.096Z,78.54
2018-07-12T07:46:12.693Z,77.61
2018-07-12T07:49:16.358Z,75.61
2018-07-12T07:52:20.052Z,73.91
2018-07-12T07:55:23.670Z,73.81
2018-07-12T07:58:27.213Z,74.18
2018-07-12T08:01:30.914Z,73.24
2018-07-12T08:04:34.513Z,73.72
2018-07-12T08:07:38.240Z,73.30
2018-07-12T08:10:44.948Z,72.39
2018-07-12T08:13:49.426Z,71.84
2018-07-12T08:16:53.159Z,71.67
2018-07-12T08:19:56.904Z,71.78
2018-07-12T08:23:00.725Z,72.64
2018-07-12T08:26:04.459Z,72.33
2018-07-12T08:29:08.073Z,71.56
2018-07-12T08:32:11.823Z,69.18
2018-07-12T08:35:15.419Z,68.15
2018-07-12T08:38:19.056Z,69.15
2018-07-12T08:41:22.697Z,68.71
2018-07-12T08:44:26.367Z,70.10
2018-07-12T08:47:30.019Z,67.15
2018-07-12T08:50:33.817Z,67.83
2018-07-12T08:53:37.501Z,69.39
2018-07-12T08:56:41.712Z,68.83
2018-07-12T08:59:45.497Z,69.61
2018-07-12T09:02:49.314Z,70.07
2018-07-12T09:05:52.898Z,69.41
2018-07-12T09:08:56.693Z,69.28
2018-07-12T09:12:00.308Z,67.43
2018-07-12T09:15:04.092Z,68.50
2018-07-12T09:18:07.694Z,68.57
2018-07-12T09:21:11.432Z,67.80
2018-07-12T09:24:15.131Z,67.23
2018-07-12T09:27:18.773Z,65.94
2018-07-12T09:30:22.417Z,63.87
2018-07-12T09:33:28.977Z,65.06
2018-07-12T09:36:32.789Z,65.00
2018-07-12T09:39:36.555Z,63.00
2018-07-12T09:42:40.204Z,60.39
2018-07-12T09:45:43.820Z,62.12
2018-07-12T09:48:48.884Z,62.58
2018-07-12T09:51:52.528Z,60.99
2018-07-12T09:54:56.159Z,62.28
2018-07-12T09:58:11.103Z,60.32
2018-07-12T10:01:19.928Z,61.02
2018-07-12T10:04:26.595Z,62.34
2018-07-12T10:07:31.622Z,62.03
2018-07-12T10:10:39.490Z,62.55
2018-07-12T10:13:51.274Z,59.53
2018-07-12T10:17:00.053Z,58.63
2018-07-12T10:20:04.995Z,59.54
2018-07-12T10:23:08.567Z,61.75
2018-07-12T10:26:12.273Z,60.43
2018-07-12T10:29:15.954Z,59.37
2018-07-12T10:32:19.565Z,60.88
2018-07-12T10:35:23.325Z,59.53
2018-07-12T10:38:26.975Z,58.47
2018-07-12T10:41:30.633Z,58.40
2018-07-12T10:44:34.290Z,60.60
2018-07-12T10:47:37.966Z,58.75
2018-07-12T10:50:41.678Z,58.76
2018-07-12T10:53:45.520Z,59.56
2018-07-12T10:56:49.144Z,59.44
2018-07-12T10:59:52.970Z,61.51
2018-07-12T11:02:56.695Z,63.71
2018-07-12T11:06:00.323Z,63.51
2018-07-12T11:09:04.831Z,64.34
2018-07-12T11:12:08.522Z,62.99
2018-07-12T11:15:12.320Z,63.59
2018-07-12T11:18:15.910Z,59.27
2018-07-12T11:21:19.577Z,58.57
2018-07-12T11:24:23.406Z,57.81
2018-07-12T11:27:27.818Z,57.76
2018-07-12T11:30:31.515Z,56.62
2018-07-12T11:33:38.157Z,56.63
2018-07-12T11:36:41.740Z,57.88
2018-07-12T11:39:45.455Z,57.39
2018-07-12T11:42:49.175Z,59.07
2018-07-12T11:45:52.878Z,58.77
2018-07-12T11:48:56.521Z,59.62
2018-07-12T11:52:00.220Z,58.88
2018-07-12T11:55:04.158Z,57.50
2018-07-12T11:58:07.812Z,55.32
2018-07-12T12:01:11.449Z,52.14
2018-07-12T12:04:15.082Z,54.16
2018-07-12T12:07:18.751Z,50.32
2018-07-12T12:10:22.440Z,49.74
2018-07-12T12:13:26.258Z,49.46
2018-07-12T12:16:30.179Z,49.21
2018-07-12T12:19:33.797Z,47.29
2018-07-12T12:22:37.435Z,47.40
2018-07-12T12:25:41.041Z,48.83
2018-07-12T12:28:44.729Z,48.77
2018-07-12T12:31:48.459Z,49.10
2018-07-12T12:34:52.162Z,49.94
2018-07-12T12:37:55.894Z,44.75
2018-07-12T12:40:59.606Z,46.54
2018-07-12T12:44:03.235Z,45.45
2018-07-12T12:47:06.897Z,44.93
2018-07-12T12:50:10.647Z,48.16
2018-07-12T12:53:14.319Z,46.93
2018-07-12T12:56:18.140Z,49.12
2018-07-12T12:59:21.820Z,53.73
2018-07-12T13:02:25.479Z,56.05
2018-07-12T13:05:29.099Z,57.29
2018-07-12T13:08:32.801Z,58.51
2018-07-12T13:11:36.867Z,59.39
2018-07-12T13:14:40.774Z,57.72
2018-07-12T13:17:44.474Z,54.76
2018-07-12T13:20:48.121Z,55.23
2018-07-12T13:23:51.927Z,54.99
2018-07-12T13:26:55.616Z,55.05
2018-07-12T13:29:59.427Z,54.34
2018-07-12T13:33:03.232Z,54.97
2018-07-12T13:36:06.945Z,54.94
2018-07-12T13:39:11.054Z,53.79
2018-07-12T13:42:14.787Z,52.91
2018-07-12T13:45:18.560Z,51.61
2018-07-12T13:48:22.237Z,51.17
2018-07-12T13:51:25.985Z,52.39
2018-07-12T13:54:29.567Z,53.71
2018-07-12T13:57:33.400Z,55.73
2018-07-12T14:00:37.220Z,56.49
2018-07-12T14:03:40.940Z,56.22
2018-07-12T14:06:44.610Z,56.15
2018-07-12T14:09:48.270Z,55.53
2018-07-12T14:12:51.956Z,56.40
2018-07-12T14:15:55.767Z,56.78
2018-07-12T14:18:59.600Z,57.05
2018-07-12T14:22:03.254Z,60.49
2018-07-12T14:25:07.083Z,62.03
2018-07-12T14:28:10.821Z,63.15
2018-07-12T14:31:14.525Z,63.85
2018-07-12T14:34:18.342Z,64.89
2018-07-12T14:37:22.057Z,65.20
2018-07-12T14:40:25.741Z,65.33
2018-07-12T14:43:29.632Z,65.18
2018-07-12T14:46:33.382Z,66.65
2018-07-12T14:49:37.061Z,65.89
2018-07-12T14:52:40.675Z,66.39
2018-07-12T14:55:44.402Z,66.24
2018-07-12T14:58:48.121Z,65.58
2018-07-12T15:01:51.832Z,65.78
2018-07-12T15:04:55.476Z,64.69
2018-07-12T15:07:59.180Z,64.51
2018-07-12T15:11:02.791Z,64.62
2018-07-12T15:14:06.876Z,64.80
2018-07-12T15:17:10.496Z,63.97
2018-07-12T15:20:14.117Z,64.81
2018-07-12T15:23:18.041Z,64.87
2018-07-12T15:26:21.770Z,65.52
2018-07-12T15:29:25.538Z,65.13
2018-07-12T15:32:29.151Z,64.79
2018-07-12T15:35:32.877Z,64.61
2018-07-12T15:38:36.575Z,64.01
2018-07-12T15:41:41.082Z,64.78
2018-07-12T15:44:44.812Z,63.40
2018-07-12T15:47:48.373Z,62.46
2018-07-12T15:50:52.153Z,61.82
2018-07-12T15:53:55.817Z,61.07
2018-07-12T15:56:59.627Z,59.93
2018-07-12T16:00:03.472Z,60.23
2018-07-12T16:03:07.110Z,59.38
2018-07-12T16:06:10.912Z,58.60
2018-07-12T16:09:14.563Z,58.41
2018-07-12T16:12:21.257Z,58.11
2018-07-12T16:15:24.938Z,58.14
2018-07-12T16:18:28.558Z,57.71
2018-07-12T16:21:32.426Z,58.71
2018-07-12T16:24:36.287Z,58.57
2018-07-12T16:27:40.028Z,58.85
2018-07-12T16:30:43.622Z,59.45
2018-07-12T16:33:47.312Z,58.86
2018-07-12T16:36:51.095Z,58.54
2018-07-12T16:39:54.964Z,59.14
2018-07-12T16:42:58.857Z,58.81
2018-07-12T16:46:02.621Z,58.73
2018-07-12T16:49:06.308Z,59.59
2018-07-12T16:52:09.927Z,59.27
2018-07-12T16:55:13.928Z,59.68
2018-07-12T16:58:17.566Z,59.20
2018-07-12T17:01:21.258Z,58.20
2018-07-12T17:04:24.984Z,57.69
2018-07-12T17:07:28.665Z,57.54
2018-07-12T17:10:32.461Z,61.55
2018-07-12T17:13:36.110Z,63.61
2018-07-12T17:16:39.783Z,64.67
2018-07-12T17:19:43.512Z,62.73
2018-07-12T17:22:47.283Z,63.73
2018-07-12T17:25:51.065Z,61.72
2018-07-12T17:28:54.704Z,58.65
2018-07-12T17:31:58.427Z,53.16
2018-07-12T17:35:02.257Z,47.93
2018-07-12T17:38:06.233Z,50.91
2018-07-12T17:41:10.057Z,53.93
2018-07-12T17:44:14.801Z,55.81
2018-07-12T17:47:18.619Z,56.27
2018-07-12T17:50:22.262Z,58.95
2018-07-12T17:53:25.911Z,59.89
2018-07-12T17:56:29.634Z,62.57
2018-07-12T17:59:33.409Z,62.31
2018-07-12T18:02:37.057Z,64.28
2018-07-12T18:05:40.861Z,64.05
2018-07-12T18:08:44.604Z,64.91
2018-07-12T18:11:48.297Z,64.16
2018-07-12T18:14:51.928Z,65.15
2018-07-12T18:17:55.750Z,65.35
2018-07-12T18:20:59.465Z,66.14
2018-07-12T18:24:03.457Z,66.05
2018-07-12T18:27:07.111Z,64.88
2018-07-12T18:30:10.813Z,64.45
2018-07-12T18:33:14.760Z,64.15
2018-07-12T18:36:18.385Z,64.14
2018-07-12T18:39:22.158Z,63.24
2018-07-12T18:42:25.895Z,62.71
2018-07-12T18:45:29.549Z,62.67
2018-07-12T18:48:33.220Z,63.89
2018-07-12T18:51:36.916Z,64.63
2018-07-12T18:54:40.853Z,65.45
2018-07-12T18:57:44.567Z,65.72
2018-07-12T19:00:48.220Z,66.60
2018-07-12T19:03:51.888Z,67.41
2018-07-12T19:06:55.584Z,67.41
2018-07-12T19:09:59.243Z,69.50
2018-07-12T19:13:03.007Z,68.93
2018-07-12T19:16:06.873Z,69.28
2018-07-12T19:19:10.598Z,69.33
2018-07-12T19:22:14.286Z,69.72
2018-07-12T19:25:18.085Z,69.67
2018-07-12T19:28:22.091Z,69.49
2018-07-12T19:31:25.733Z,69.73
2018-07-12T19:34:29.436Z,70.21
2018-07-12T19:37:33.190Z,69.50
2018-07-12T19:40:36.856Z,70.69
2018-07-12T19:43:40.538Z,70.67
2018-07-12T19:46:44.335Z,70.77
2018-07-12T19:49:47.836Z,71.51
2018-07-12T19:52:51.603Z,71.59
2018-07-12T19:55:55.338Z,71.87
2018-07-12T19:58:59.007Z,72.24
2018-07-12T20:02:02.743Z,72.31
2018-07-12T20:05:06.366Z,73.02
2018-07-12T20:08:10.173Z,73.73
2018-07-12T20:11:13.880Z,73.47
2018-07-12T20:14:17.534Z,73.32
2018-07-12T20:17:21.252Z,72.97
2018-07-12T20:20:24.980Z,72.26
2018-07-12T20:23:28.828Z,72.37
2018-07-12T20:26:32.685Z,72.34
2018-07-12T20:29:36.279Z,72.30
2018-07-12T20:32:40.041Z,72.06
2018-07-12T20:35:43.775Z,71.33
2018-07-12T20:38:47.593Z,71.47
2018-07-12T20:41:51.750Z,72.13
2018-07-12T20:44:55.545Z,71.93
2018-07-12T20:47:59.309Z,72.08
2018-07-12T20:51:02.974Z,72.45
2018-07-12T20:54:06.760Z,71.96
2018-07-12T20:57:10.552Z,72.30
2018-07-12T21:00:14.281Z,72.31
2018-07-12T21:03:17.945Z,72.33
2018-07-12T21:06:21.696Z,72.66
2018-07-12T21:09:25.519Z,72.66
2018-07-12T21:12:29.293Z,72.75
2018-07-12T21:15:33.136Z,73.26
2018-07-12T21:18:36.720Z,73.67
2018-07-12T21:21:40.439Z,73.71
2018-07-12T21:24:44.184Z,73.46
2018-07-12T21:27:47.893Z,72.78
2018-07-12T21:30:51.564Z,72.06
2018-07-12T21:33:55.174Z,71.90
2018-07-12T21:36:58.786Z,71.74
2018-07-12T21:40:02.455Z,71.51
2018-07-12T21:43:06.331Z,72.04
2018-07-12T21:46:10.268Z,72.38
2018-07-12T21:49:14.040Z,73.04
2018-07-12T21:52:17.597Z,72.68
2018-07-12T21:55:21.345Z,73.12
2018-07-12T21:58:25.001Z,73.52
2018-07-12T22:01:28.720Z,73.53
2018-07-12T22:04:32.394Z,74.33
2018-07-12T22:08:26.971Z,75.68
2018-07-12T22:11:30.676Z,76.71
2018-07-12T22:14:34.263Z,76.83
2018-07-12T22:17:37.880Z,78.21
2018-07-12T22:20:41.551Z,78.38
2018-07-12T22:23:45.300Z,77.57
2018-07-12T22:26:48.981Z,78.61
2018-07-12T22:29:52.683Z,79.45
2018-07-12T22:32:56.436Z,79.89
2018-07-12T22:36:00.028Z,80.44
2018-07-12T22:39:03.871Z,80.99
2018-07-12T22:42:07.594Z,81.52
2018-07-12T22:45:11.127Z,81.87
2018-07-12T22:48:14.848Z,82.37
2018-07-12T22:51:18.390Z,83.01
2018-07-12T22:54:22.066Z,83.43
2018-07-12T22:57:25.620Z,83.16
2018-07-12T23:00:29.250Z,83.76
2018-07-12T23:03:32.972Z,84.50
2018-07-12T23:06:36.612Z,84.66
2018-07-12T23:09:40.192Z,84.58
2018-07-12T23:12:43.851Z,85.43
2018-07-12T23:15:47.589Z,85.58
2018-07-12T23:18:51.215Z,86.11
2018-07-12T23:21:54.965Z,86.06
2018-07-12T23:24:58.741Z,86.42
2018-07-12T23:28:02.321Z,87.01
2018-07-12T23:31:05.860Z,87.22
2018-07-12T23:34:09.630Z,87.48
2018-07-12T23:37:13.251Z,87.73
2018-07-12T23:40:16.820Z,88.28
2018-07-12T23:43:20.495Z,88.43
2018-07-12T23:46:24.050Z,88.78
2018-07-12T23:49:27.607Z,89.34
2018-07-12T23:52:31.342Z,89.76
2018-07-12T23:55:35.182Z,89.54
2018-07-12T23:58:38.732Z,89.68
